sensor_id;sensor_type;location;lat;lon;timestamp;P1;durP1;ratioP1;P2;durP2;ratioP2
48679;SDS011;34475;51.658;5.634;2022-07-01T00:00:00;1.1;;;0.9;;
48679;SDS011;34475;51.658;5.634;2022-07-01T00:01:00;1.1;;;0.9;;
48679;SDS011;34475;51.658;5.634;2022-07-01T00:02:00;1.1;;;0.9;;
48679;SDS011;34475;51.658;5.634;2022-07-01T00:03:00;1.1;;;0.9;;
48679;SDS011;34475;51.658;5.634;2022-07-01T00:04:00;1.1;;;0.9;;
48679;SDS011;34475;51.658;5.634;2022-07-01T00:05:00;1.1;;;0.9;;
48679;SDS011;34475;51.658;5.634;2022-07-01T00:06:00;1.1;;;0.9;;
48679;SDS011;34475;51.658;5.634;2022-07-01T00:07:00;1.1;;;0.9;;
48679;SDS011;34475;51.658;5.634;2022-07-01T00:08:00;1.1;;;0.9;;
48679;SDS011;34475;51.658;5.634;2022-07-01T00:09:00;1.1;;;0.9;;
48679;SDS011;34475;51.658;5.634;2022-07-01T00:10:00;1.1;;;0.9;;
48679;SDS011;34475;51.658;5.634;2022-07-01T00:11:00;1.1;;;0.9;;
48679;SDS011;34475;51.658;5.634;2022-07-01T00:12:00;1.1;;;0.9;;
48679;SDS011;34475;51.658;5.634;2022-07-01T00:13:00;1.1;;;0.9;;
48679;SDS011;34475;51.658;5.634;2022-07-01T00:14:00;1.1;;;0.9;;
48679;SDS011;34475;51.658;5.634;2022-07-01T00:15:00;1.1;;;0.9;;
48679;SDS011;34475;51.658;5.634;2022-07-01T00:16:00;1.1;;;0.9;;
48679;SDS011;34475;51.658;5.634;2022-07-01T00:17:00;1.1;;;0.9;;
48679;SDS011;34475;51.658;5.634;2022-07-01T00:18:00;1.1;;;0.9;;
48679;SDS011;34475;51.658;5.634;2022-07-01T00:19:01;1.8;;;1.7;;
48679;SDS011;34475;51.658;5.634;2022-07-01T00:20:00;1.8;;;1.7;;
48679;SDS011;34475;51.658;5.634;2022-07-01T00:21:01;1.8;;;1.7;;
48679;SDS011;34475;51.658;5.634;2022-07-01T00:22:00;1.8;;;1.7;;
48679;SDS011;34475;51.658;5.634;2022-07-01T00:23:00;1.8;;;1.7;;
48679;SDS011;34475;51.658;5.634;2022-07-01T00:24:00;1.8;;;1.7;;
48679;SDS011;34475;51.658;5.634;2022-07-01T00:25:00;1.8;;;1.7;;
48679;SDS011;34475;51.658;5.634;2022-07-01T00:26:00;1.8;;;1.7;;
48679;SDS011;34475;51.658;5.634;2022-07-01T00:27:00;1.8;;;1.7;;
48679;SDS011;34475;51.658;5.634;2022-07-01T00:28:01;1.8;;;1.7;;
48679;SDS011;34475;51.658;5.634;2022-07-01T00:29:00;1.8;;;1.7;;
48679;SDS011;34475;51.658;5.634;2022-07-01T00:30:00;1.8;;;1.7;;
48679;SDS011;34475;51.658;5.634;2022-07-01T00:31:00;1.8;;;1.7;;
48679;SDS011;34475;51.658;5.634;2022-07-01T00:32:00;1.8;;;1.7;;
48679;SDS011;34475;51.658;5.634;2022-07-01T00:33:00;1.8;;;1.7;;
48679;SDS011;34475;51.658;5.634;2022-07-01T00:34:00;1.8;;;1.7;;
48679;SDS011;34475;51.658;5.634;2022-07-01T00:35:00;1.8;;;1.7;;
48679;SDS011;34475;51.658;5.634;2022-07-01T00:36:00;1.8;;;1.7;;
48679;SDS011;34475;51.658;5.634;2022-07-01T00:37:00;1.8;;;1.7;;
48679;SDS011;34475;51.658;5.634;2022-07-01T00:38:00;1.8;;;1.7;;
48679;SDS011;34475;51.658;5.634;2022-07-01T00:39:00;1.0;;;1.0;;
48679;SDS011;34475;51.658;5.634;2022-07-01T00:40:00;1.0;;;1.0;;
48679;SDS011;34475;51.658;5.634;2022-07-01T00:41:00;1.0;;;1.0;;
48679;SDS011;34475;51.658;5.634;2022-07-01T00:42:01;1.0;;;1.0;;
48679;SDS011;34475;51.658;5.634;2022-07-01T00:43:00;1.0;;;1.0;;
48679;SDS011;34475;51.658;5.634;2022-07-01T00:44:00;1.0;;;1.0;;
48679;SDS011;34475;51.658;5.634;2022-07-01T00:45:00;1.0;;;1.0;;
48679;SDS011;34475;51.658;5.634;2022-07-01T00:46:00;1.0;;;1.0;;
48679;SDS011;34475;51.658;5.634;2022-07-01T00:47:02;1.0;;;1.0;;
48679;SDS011;34475;51.658;5.634;2022-07-01T00:48:00;1.0;;;1.0;;
48679;SDS011;34475;51.658;5.634;2022-07-01T00:49:01;1.0;;;1.0;;
48679;SDS011;34475;51.658;5.634;2022-07-01T00:50:00;1.0;;;1.0;;
48679;SDS011;34475;51.658;5.634;2022-07-01T00:51:00;1.0;;;1.0;;
48679;SDS011;34475;51.658;5.634;2022-07-01T00:52:00;1.0;;;1.0;;
48679;SDS011;34475;51.658;5.634;2022-07-01T00:53:00;1.0;;;1.0;;
48679;SDS011;34475;51.658;5.634;2022-07-01T00:54:01;1.0;;;1.0;;
48679;SDS011;34475;51.658;5.634;2022-07-01T00:55:03;1.0;;;1.0;;
48679;SDS011;34475;51.658;5.634;2022-07-01T00:56:00;1.0;;;1.0;;
48679;SDS011;34475;51.658;5.634;2022-07-01T00:57:06;1.0;;;1.0;;
48679;SDS011;34475;51.658;5.634;2022-07-01T00:58:00;1.0;;;1.0;;
48679;SDS011;34475;51.658;5.634;2022-07-01T00:59:00;0.8;;;0.8;;
48679;SDS011;34475;51.658;5.634;2022-07-01T01:00:04;0.8;;;0.8;;
48679;SDS011;34475;51.658;5.634;2022-07-01T01:01:00;0.8;;;0.8;;
48679;SDS011;34475;51.658;5.634;2022-07-01T01:02:00;0.8;;;0.8;;
48679;SDS011;34475;51.658;5.634;2022-07-01T01:03:00;0.8;;;0.8;;
48679;SDS011;34475;51.658;5.634;2022-07-01T01:04:01;0.8;;;0.8;;
48679;SDS011;34475;51.658;5.634;2022-07-01T01:05:00;0.8;;;0.8;;
48679;SDS011;34475;51.658;5.634;2022-07-01T01:06:00;0.8;;;0.8;;
48679;SDS011;34475;51.658;5.634;2022-07-01T01:07:01;0.8;;;0.8;;
48679;SDS011;34475;51.658;5.634;2022-07-01T01:08:00;0.8;;;0.8;;
48679;SDS011;34475;51.658;5.634;2022-07-01T01:09:00;0.8;;;0.8;;
48679;SDS011;34475;51.658;5.634;2022-07-01T01:10:02;0.8;;;0.8;;
48679;SDS011;34475;51.658;5.634;2022-07-01T01:11:00;0.8;;;0.8;;
48679;SDS011;34475;51.658;5.634;2022-07-01T01:12:01;0.8;;;0.8;;
48679;SDS011;34475;51.658;5.634;2022-07-01T01:13:00;0.8;;;0.8;;
48679;SDS011;34475;51.658;5.634;2022-07-01T01:14:00;0.8;;;0.8;;
48679;SDS011;34475;51.658;5.634;2022-07-01T01:15:00;0.8;;;0.8;;
48679;SDS011;34475;51.658;5.634;2022-07-01T01:16:00;0.8;;;0.8;;
48679;SDS011;34475;51.658;5.634;2022-07-01T01:17:00;0.8;;;0.8;;
48679;SDS011;34475;51.658;5.634;2022-07-01T01:18:00;0.8;;;0.8;;
48679;SDS011;34475;51.658;5.634;2022-07-01T01:19:00;1.3;;;1.2;;
48679;SDS011;34475;51.658;5.634;2022-07-01T01:20:00;1.3;;;1.2;;
48679;SDS011;34475;51.658;5.634;2022-07-01T01:21:00;1.3;;;1.2;;
48679;SDS011;34475;51.658;5.634;2022-07-01T01:22:00;1.3;;;1.2;;
48679;SDS011;34475;51.658;5.634;2022-07-01T01:23:01;1.3;;;1.2;;
48679;SDS011;34475;51.658;5.634;2022-07-01T01:24:00;1.3;;;1.2;;
48679;SDS011;34475;51.658;5.634;2022-07-01T01:25:00;1.3;;;1.2;;
48679;SDS011;34475;51.658;5.634;2022-07-01T01:26:01;1.3;;;1.2;;
48679;SDS011;34475;51.658;5.634;2022-07-01T01:27:00;1.3;;;1.2;;
48679;SDS011;34475;51.658;5.634;2022-07-01T01:28:01;1.3;;;1.2;;
48679;SDS011;34475;51.658;5.634;2022-07-01T01:29:00;1.3;;;1.2;;
48679;SDS011;34475;51.658;5.634;2022-07-01T01:30:00;1.3;;;1.2;;
48679;SDS011;34475;51.658;5.634;2022-07-01T01:31:00;1.3;;;1.2;;
48679;SDS011;34475;51.658;5.634;2022-07-01T01:32:01;1.3;;;1.2;;
48679;SDS011;34475;51.658;5.634;2022-07-01T01:33:00;1.3;;;1.2;;
48679;SDS011;34475;51.658;5.634;2022-07-01T01:34:00;1.3;;;1.2;;
48679;SDS011;34475;51.658;5.634;2022-07-01T01:35:00;1.3;;;1.2;;
48679;SDS011;34475;51.658;5.634;2022-07-01T01:36:00;1.3;;;1.2;;
48679;SDS011;34475;51.658;5.634;2022-07-01T01:37:00;1.3;;;1.2;;
48679;SDS011;34475;51.658;5.634;2022-07-01T01:38:00;1.3;;;1.2;;
48679;SDS011;34475;51.658;5.634;2022-07-01T01:39:03;1.3;;;1.2;;
48679;SDS011;34475;51.658;5.634;2022-07-01T01:40:00;1.3;;;1.2;;
48679;SDS011;34475;51.658;5.634;2022-07-01T01:41:00;1.3;;;1.2;;
48679;SDS011;34475;51.658;5.634;2022-07-01T01:42:00;1.3;;;1.2;;
48679;SDS011;34475;51.658;5.634;2022-07-01T01:43:00;1.3;;;1.2;;
48679;SDS011;34475;51.658;5.634;2022-07-01T01:44:00;1.3;;;1.2;;
48679;SDS011;34475;51.658;5.634;2022-07-01T01:45:00;1.3;;;1.2;;
48679;SDS011;34475;51.658;5.634;2022-07-01T01:46:02;1.3;;;1.2;;
48679;SDS011;34475;51.658;5.634;2022-07-01T01:47:00;1.3;;;1.2;;
48679;SDS011;34475;51.658;5.634;2022-07-01T01:48:00;1.3;;;1.2;;
48679;SDS011;34475;51.658;5.634;2022-07-01T01:49:00;1.3;;;1.2;;
48679;SDS011;34475;51.658;5.634;2022-07-01T01:50:00;1.3;;;1.2;;
48679;SDS011;34475;51.658;5.634;2022-07-01T01:51:00;1.3;;;1.2;;
48679;SDS011;34475;51.658;5.634;2022-07-01T01:52:00;1.3;;;1.2;;
48679;SDS011;34475;51.658;5.634;2022-07-01T01:53:00;1.3;;;1.2;;
48679;SDS011;34475;51.658;5.634;2022-07-01T01:54:00;1.3;;;1.2;;
48679;SDS011;34475;51.658;5.634;2022-07-01T01:55:00;1.3;;;1.2;;
48679;SDS011;34475;51.658;5.634;2022-07-01T01:56:00;1.3;;;1.2;;
48679;SDS011;34475;51.658;5.634;2022-07-01T01:57:01;1.3;;;1.2;;
48679;SDS011;34475;51.658;5.634;2022-07-01T01:58:00;1.3;;;1.2;;
48679;SDS011;34475;51.658;5.634;2022-07-01T01:59:00;0.7;;;0.7;;
48679;SDS011;34475;51.658;5.634;2022-07-01T02:00:00;0.7;;;0.7;;
48679;SDS011;34475;51.658;5.634;2022-07-01T02:01:01;0.7;;;0.7;;
48679;SDS011;34475;51.658;5.634;2022-07-01T02:02:00;0.7;;;0.7;;
48679;SDS011;34475;51.658;5.634;2022-07-01T02:03:00;0.7;;;0.7;;
48679;SDS011;34475;51.658;5.634;2022-07-01T02:04:00;0.7;;;0.7;;
48679;SDS011;34475;51.658;5.634;2022-07-01T02:05:00;0.7;;;0.7;;
48679;SDS011;34475;51.658;5.634;2022-07-01T02:06:00;0.7;;;0.7;;
48679;SDS011;34475;51.658;5.634;2022-07-01T02:07:00;0.7;;;0.7;;
48679;SDS011;34475;51.658;5.634;2022-07-01T02:08:00;0.7;;;0.7;;
48679;SDS011;34475;51.658;5.634;2022-07-01T02:09:00;0.7;;;0.7;;
48679;SDS011;34475;51.658;5.634;2022-07-01T02:10:00;0.7;;;0.7;;
48679;SDS011;34475;51.658;5.634;2022-07-01T02:11:03;0.7;;;0.7;;
48679;SDS011;34475;51.658;5.634;2022-07-01T02:12:00;0.7;;;0.7;;
48679;SDS011;34475;51.658;5.634;2022-07-01T02:13:00;0.7;;;0.7;;
48679;SDS011;34475;51.658;5.634;2022-07-01T02:14:00;0.7;;;0.7;;
48679;SDS011;34475;51.658;5.634;2022-07-01T02:15:00;0.7;;;0.7;;
48679;SDS011;34475;51.658;5.634;2022-07-01T02:16:00;0.7;;;0.7;;
48679;SDS011;34475;51.658;5.634;2022-07-01T02:17:00;0.7;;;0.7;;
48679;SDS011;34475;51.658;5.634;2022-07-01T02:18:00;0.7;;;0.7;;
48679;SDS011;34475;51.658;5.634;2022-07-01T02:19:00;0.5;;;0.5;;
48679;SDS011;34475;51.658;5.634;2022-07-01T02:20:00;0.5;;;0.5;;
48679;SDS011;34475;51.658;5.634;2022-07-01T02:21:00;0.5;;;0.5;;
48679;SDS011;34475;51.658;5.634;2022-07-01T02:22:00;0.5;;;0.5;;
48679;SDS011;34475;51.658;5.634;2022-07-01T02:23:00;0.5;;;0.5;;
48679;SDS011;34475;51.658;5.634;2022-07-01T02:24:00;0.5;;;0.5;;
48679;SDS011;34475;51.658;5.634;2022-07-01T02:25:00;0.5;;;0.5;;
48679;SDS011;34475;51.658;5.634;2022-07-01T02:26:00;0.5;;;0.5;;
48679;SDS011;34475;51.658;5.634;2022-07-01T02:27:00;0.5;;;0.5;;
48679;SDS011;34475;51.658;5.634;2022-07-01T02:28:00;0.5;;;0.5;;
48679;SDS011;34475;51.658;5.634;2022-07-01T02:29:00;0.5;;;0.5;;
48679;SDS011;34475;51.658;5.634;2022-07-01T02:30:00;0.5;;;0.5;;
48679;SDS011;34475;51.658;5.634;2022-07-01T02:31:02;0.5;;;0.5;;
48679;SDS011;34475;51.658;5.634;2022-07-01T02:32:00;0.5;;;0.5;;
48679;SDS011;34475;51.658;5.634;2022-07-01T02:33:00;0.5;;;0.5;;
48679;SDS011;34475;51.658;5.634;2022-07-01T02:34:00;0.5;;;0.5;;
48679;SDS011;34475;51.658;5.634;2022-07-01T02:35:00;0.5;;;0.5;;
48679;SDS011;34475;51.658;5.634;2022-07-01T02:36:00;0.5;;;0.5;;
48679;SDS011;34475;51.658;5.634;2022-07-01T02:37:00;0.5;;;0.5;;
48679;SDS011;34475;51.658;5.634;2022-07-01T02:38:01;0.5;;;0.5;;
48679;SDS011;34475;51.658;5.634;2022-07-01T02:39:00;1.1;;;1.1;;
48679;SDS011;34475;51.658;5.634;2022-07-01T02:40:01;1.1;;;1.1;;
48679;SDS011;34475;51.658;5.634;2022-07-01T02:41:00;1.1;;;1.1;;
48679;SDS011;34475;51.658;5.634;2022-07-01T02:42:10;1.1;;;1.1;;
48679;SDS011;34475;51.658;5.634;2022-07-01T02:43:00;1.1;;;1.1;;
48679;SDS011;34475;51.658;5.634;2022-07-01T02:44:00;1.1;;;1.1;;
48679;SDS011;34475;51.658;5.634;2022-07-01T02:45:01;1.1;;;1.1;;
48679;SDS011;34475;51.658;5.634;2022-07-01T02:46:00;1.1;;;1.1;;
48679;SDS011;34475;51.658;5.634;2022-07-01T02:47:00;1.1;;;1.1;;
48679;SDS011;34475;51.658;5.634;2022-07-01T02:48:01;1.1;;;1.1;;
48679;SDS011;34475;51.658;5.634;2022-07-01T02:49:00;1.1;;;1.1;;
48679;SDS011;34475;51.658;5.634;2022-07-01T02:50:01;1.1;;;1.1;;
48679;SDS011;34475;51.658;5.634;2022-07-01T02:51:00;1.1;;;1.1;;
48679;SDS011;34475;51.658;5.634;2022-07-01T02:52:00;1.1;;;1.1;;
48679;SDS011;34475;51.658;5.634;2022-07-01T02:53:00;1.1;;;1.1;;
48679;SDS011;34475;51.658;5.634;2022-07-01T02:54:00;1.1;;;1.1;;
48679;SDS011;34475;51.658;5.634;2022-07-01T02:55:01;1.1;;;1.1;;
48679;SDS011;34475;51.658;5.634;2022-07-01T02:56:00;1.1;;;1.1;;
48679;SDS011;34475;51.658;5.634;2022-07-01T02:57:01;1.1;;;1.1;;
48679;SDS011;34475;51.658;5.634;2022-07-01T02:58:00;1.1;;;1.1;;
48679;SDS011;34475;51.658;5.634;2022-07-01T02:59:00;0.8;;;0.8;;
48679;SDS011;34475;51.658;5.634;2022-07-01T03:00:00;0.8;;;0.8;;
48679;SDS011;34475;51.658;5.634;2022-07-01T03:01:00;0.8;;;0.8;;
48679;SDS011;34475;51.658;5.634;2022-07-01T03:02:00;0.8;;;0.8;;
48679;SDS011;34475;51.658;5.634;2022-07-01T03:03:00;0.8;;;0.8;;
48679;SDS011;34475;51.658;5.634;2022-07-01T03:04:00;0.8;;;0.8;;
48679;SDS011;34475;51.658;5.634;2022-07-01T03:05:00;0.8;;;0.8;;
48679;SDS011;34475;51.658;5.634;2022-07-01T03:06:00;0.8;;;0.8;;
48679;SDS011;34475;51.658;5.634;2022-07-01T03:07:00;0.8;;;0.8;;
48679;SDS011;34475;51.658;5.634;2022-07-01T03:08:00;0.8;;;0.8;;
48679;SDS011;34475;51.658;5.634;2022-07-01T03:09:00;0.8;;;0.8;;
48679;SDS011;34475;51.658;5.634;2022-07-01T03:10:00;0.8;;;0.8;;
48679;SDS011;34475;51.658;5.634;2022-07-01T03:11:00;0.8;;;0.8;;
48679;SDS011;34475;51.658;5.634;2022-07-01T03:12:10;0.8;;;0.8;;
48679;SDS011;34475;51.658;5.634;2022-07-01T03:13:01;0.8;;;0.8;;
48679;SDS011;34475;51.658;5.634;2022-07-01T03:14:00;0.8;;;0.8;;
48679;SDS011;34475;51.658;5.634;2022-07-01T03:15:03;0.8;;;0.8;;
48679;SDS011;34475;51.658;5.634;2022-07-01T03:16:00;0.8;;;0.8;;
48679;SDS011;34475;51.658;5.634;2022-07-01T03:17:00;0.8;;;0.8;;
48679;SDS011;34475;51.658;5.634;2022-07-01T03:18:00;0.8;;;0.8;;
48679;SDS011;34475;51.658;5.634;2022-07-01T03:19:01;0.6;;;0.6;;
48679;SDS011;34475;51.658;5.634;2022-07-01T03:20:01;0.6;;;0.6;;
48679;SDS011;34475;51.658;5.634;2022-07-01T03:21:00;0.6;;;0.6;;
48679;SDS011;34475;51.658;5.634;2022-07-01T03:22:00;0.6;;;0.6;;
48679;SDS011;34475;51.658;5.634;2022-07-01T03:23:01;0.6;;;0.6;;
48679;SDS011;34475;51.658;5.634;2022-07-01T03:24:00;0.6;;;0.6;;
48679;SDS011;34475;51.658;5.634;2022-07-01T03:25:00;0.6;;;0.6;;
48679;SDS011;34475;51.658;5.634;2022-07-01T03:26:00;0.6;;;0.6;;
48679;SDS011;34475;51.658;5.634;2022-07-01T03:27:00;0.6;;;0.6;;
48679;SDS011;34475;51.658;5.634;2022-07-01T03:28:03;0.6;;;0.6;;
48679;SDS011;34475;51.658;5.634;2022-07-01T03:29:00;0.6;;;0.6;;
48679;SDS011;34475;51.658;5.634;2022-07-01T03:30:00;0.6;;;0.6;;
48679;SDS011;34475;51.658;5.634;2022-07-01T03:31:01;0.6;;;0.6;;
48679;SDS011;34475;51.658;5.634;2022-07-01T03:32:00;0.6;;;0.6;;
48679;SDS011;34475;51.658;5.634;2022-07-01T03:33:00;0.6;;;0.6;;
48679;SDS011;34475;51.658;5.634;2022-07-01T03:34:00;0.6;;;0.6;;
48679;SDS011;34475;51.658;5.634;2022-07-01T03:35:00;0.6;;;0.6;;
48679;SDS011;34475;51.658;5.634;2022-07-01T03:36:00;0.6;;;0.6;;
48679;SDS011;34475;51.658;5.634;2022-07-01T03:37:00;0.6;;;0.6;;
48679;SDS011;34475;51.658;5.634;2022-07-01T03:38:00;0.6;;;0.6;;
48679;SDS011;34475;51.658;5.634;2022-07-01T03:39:03;1.8;;;1.7;;
48679;SDS011;34475;51.658;5.634;2022-07-01T03:40:00;1.8;;;1.7;;
48679;SDS011;34475;51.658;5.634;2022-07-01T03:41:00;1.8;;;1.7;;
48679;SDS011;34475;51.658;5.634;2022-07-01T03:42:00;1.8;;;1.7;;
48679;SDS011;34475;51.658;5.634;2022-07-01T03:43:00;1.8;;;1.7;;
48679;SDS011;34475;51.658;5.634;2022-07-01T03:44:00;1.8;;;1.7;;
48679;SDS011;34475;51.658;5.634;2022-07-01T03:45:00;1.8;;;1.7;;
48679;SDS011;34475;51.658;5.634;2022-07-01T03:46:00;1.8;;;1.7;;
48679;SDS011;34475;51.658;5.634;2022-07-01T03:47:00;1.8;;;1.7;;
48679;SDS011;34475;51.658;5.634;2022-07-01T03:48:00;1.8;;;1.7;;
48679;SDS011;34475;51.658;5.634;2022-07-01T03:49:00;1.8;;;1.7;;
48679;SDS011;34475;51.658;5.634;2022-07-01T03:50:00;1.8;;;1.7;;
48679;SDS011;34475;51.658;5.634;2022-07-01T03:51:00;1.8;;;1.7;;
48679;SDS011;34475;51.658;5.634;2022-07-01T03:52:02;1.8;;;1.7;;
48679;SDS011;34475;51.658;5.634;2022-07-01T03:53:10;1.8;;;1.7;;
48679;SDS011;34475;51.658;5.634;2022-07-01T03:54:10;1.8;;;1.7;;
48679;SDS011;34475;51.658;5.634;2022-07-01T03:55:00;1.8;;;1.7;;
48679;SDS011;34475;51.658;5.634;2022-07-01T03:56:00;1.8;;;1.7;;
48679;SDS011;34475;51.658;5.634;2022-07-01T03:57:02;1.8;;;1.7;;
48679;SDS011;34475;51.658;5.634;2022-07-01T03:58:00;1.8;;;1.7;;
48679;SDS011;34475;51.658;5.634;2022-07-01T03:59:00;0.8;;;0.8;;
48679;SDS011;34475;51.658;5.634;2022-07-01T04:00:00;0.8;;;0.8;;
48679;SDS011;34475;51.658;5.634;2022-07-01T04:01:00;0.8;;;0.8;;
48679;SDS011;34475;51.658;5.634;2022-07-01T04:02:00;0.8;;;0.8;;
48679;SDS011;34475;51.658;5.634;2022-07-01T04:03:00;0.8;;;0.8;;
48679;SDS011;34475;51.658;5.634;2022-07-01T04:04:00;0.8;;;0.8;;
48679;SDS011;34475;51.658;5.634;2022-07-01T04:05:00;0.8;;;0.8;;
48679;SDS011;34475;51.658;5.634;2022-07-01T04:06:00;0.8;;;0.8;;
48679;SDS011;34475;51.658;5.634;2022-07-01T04:07:01;0.8;;;0.8;;
48679;SDS011;34475;51.658;5.634;2022-07-01T04:08:01;0.8;;;0.8;;
48679;SDS011;34475;51.658;5.634;2022-07-01T04:09:00;0.8;;;0.8;;
48679;SDS011;34475;51.658;5.634;2022-07-01T04:10:00;0.8;;;0.8;;
48679;SDS011;34475;51.658;5.634;2022-07-01T04:11:00;0.8;;;0.8;;
48679;SDS011;34475;51.658;5.634;2022-07-01T04:12:00;0.8;;;0.8;;
48679;SDS011;34475;51.658;5.634;2022-07-01T04:13:11;0.8;;;0.8;;
48679;SDS011;34475;51.658;5.634;2022-07-01T04:14:00;0.8;;;0.8;;
48679;SDS011;34475;51.658;5.634;2022-07-01T04:15:00;0.8;;;0.8;;
48679;SDS011;34475;51.658;5.634;2022-07-01T04:16:00;0.8;;;0.8;;
48679;SDS011;34475;51.658;5.634;2022-07-01T04:17:00;0.8;;;0.8;;
48679;SDS011;34475;51.658;5.634;2022-07-01T04:18:00;0.8;;;0.8;;
48679;SDS011;34475;51.658;5.634;2022-07-01T04:19:00;1.1;;;1.1;;
48679;SDS011;34475;51.658;5.634;2022-07-01T04:20:00;1.1;;;1.1;;
48679;SDS011;34475;51.658;5.634;2022-07-01T04:21:10;1.1;;;1.1;;
48679;SDS011;34475;51.658;5.634;2022-07-01T04:22:10;1.1;;;1.1;;
48679;SDS011;34475;51.658;5.634;2022-07-01T04:23:00;1.1;;;1.1;;
48679;SDS011;34475;51.658;5.634;2022-07-01T04:24:00;1.1;;;1.1;;
48679;SDS011;34475;51.658;5.634;2022-07-01T04:25:01;1.1;;;1.1;;
48679;SDS011;34475;51.658;5.634;2022-07-01T04:26:10;1.1;;;1.1;;
48679;SDS011;34475;51.658;5.634;2022-07-01T04:27:00;1.1;;;1.1;;
48679;SDS011;34475;51.658;5.634;2022-07-01T04:28:01;1.1;;;1.1;;
48679;SDS011;34475;51.658;5.634;2022-07-01T04:29:00;1.1;;;1.1;;
48679;SDS011;34475;51.658;5.634;2022-07-01T04:30:02;1.1;;;1.1;;
48679;SDS011;34475;51.658;5.634;2022-07-01T04:31:00;1.1;;;1.1;;
48679;SDS011;34475;51.658;5.634;2022-07-01T04:32:00;1.1;;;1.1;;
48679;SDS011;34475;51.658;5.634;2022-07-01T04:33:00;1.1;;;1.1;;
48679;SDS011;34475;51.658;5.634;2022-07-01T04:34:00;1.1;;;1.1;;
48679;SDS011;34475;51.658;5.634;2022-07-01T04:35:00;1.1;;;1.1;;
48679;SDS011;34475;51.658;5.634;2022-07-01T04:36:00;1.1;;;1.1;;
48679;SDS011;34475;51.658;5.634;2022-07-01T04:37:00;1.1;;;1.1;;
48679;SDS011;34475;51.658;5.634;2022-07-01T04:38:01;1.1;;;1.1;;
48679;SDS011;34475;51.658;5.634;2022-07-01T04:39:00;0.9;;;0.9;;
48679;SDS011;34475;51.658;5.634;2022-07-01T04:40:00;0.9;;;0.9;;
48679;SDS011;34475;51.658;5.634;2022-07-01T04:41:10;0.9;;;0.9;;
48679;SDS011;34475;51.658;5.634;2022-07-01T04:42:00;0.9;;;0.9;;
48679;SDS011;34475;51.658;5.634;2022-07-01T04:43:00;0.9;;;0.9;;
48679;SDS011;34475;51.658;5.634;2022-07-01T04:44:00;0.9;;;0.9;;
48679;SDS011;34475;51.658;5.634;2022-07-01T04:45:00;0.9;;;0.9;;
48679;SDS011;34475;51.658;5.634;2022-07-01T04:46:00;0.9;;;0.9;;
48679;SDS011;34475;51.658;5.634;2022-07-01T04:47:01;0.9;;;0.9;;
48679;SDS011;34475;51.658;5.634;2022-07-01T04:48:00;0.9;;;0.9;;
48679;SDS011;34475;51.658;5.634;2022-07-01T04:49:00;0.9;;;0.9;;
48679;SDS011;34475;51.658;5.634;2022-07-01T04:50:01;0.9;;;0.9;;
48679;SDS011;34475;51.658;5.634;2022-07-01T04:51:05;0.9;;;0.9;;
48679;SDS011;34475;51.658;5.634;2022-07-01T04:52:00;0.9;;;0.9;;
48679;SDS011;34475;51.658;5.634;2022-07-01T04:53:00;0.9;;;0.9;;
48679;SDS011;34475;51.658;5.634;2022-07-01T04:54:02;0.9;;;0.9;;
48679;SDS011;34475;51.658;5.634;2022-07-01T04:55:00;0.9;;;0.9;;
48679;SDS011;34475;51.658;5.634;2022-07-01T04:56:00;0.9;;;0.9;;
48679;SDS011;34475;51.658;5.634;2022-07-01T04:57:00;0.9;;;0.9;;
48679;SDS011;34475;51.658;5.634;2022-07-01T04:58:00;0.9;;;0.9;;
48679;SDS011;34475;51.658;5.634;2022-07-01T04:59:01;1.6;;;1.6;;
48679;SDS011;34475;51.658;5.634;2022-07-01T05:00:00;1.6;;;1.6;;
48679;SDS011;34475;51.658;5.634;2022-07-01T05:01:00;1.6;;;1.6;;
48679;SDS011;34475;51.658;5.634;2022-07-01T05:02:01;1.6;;;1.6;;
48679;SDS011;34475;51.658;5.634;2022-07-01T05:03:00;1.6;;;1.6;;
48679;SDS011;34475;51.658;5.634;2022-07-01T05:04:00;1.6;;;1.6;;
48679;SDS011;34475;51.658;5.634;2022-07-01T05:05:00;1.6;;;1.6;;
48679;SDS011;34475;51.658;5.634;2022-07-01T05:06:00;1.6;;;1.6;;
48679;SDS011;34475;51.658;5.634;2022-07-01T05:07:00;1.6;;;1.6;;
48679;SDS011;34475;51.658;5.634;2022-07-01T05:08:00;1.6;;;1.6;;
48679;SDS011;34475;51.658;5.634;2022-07-01T05:09:00;1.6;;;1.6;;
48679;SDS011;34475;51.658;5.634;2022-07-01T05:10:01;1.6;;;1.6;;
48679;SDS011;34475;51.658;5.634;2022-07-01T05:11:00;1.6;;;1.6;;
48679;SDS011;34475;51.658;5.634;2022-07-01T05:12:00;1.6;;;1.6;;
48679;SDS011;34475;51.658;5.634;2022-07-01T05:13:00;1.6;;;1.6;;
48679;SDS011;34475;51.658;5.634;2022-07-01T05:14:00;1.6;;;1.6;;
48679;SDS011;34475;51.658;5.634;2022-07-01T05:15:00;1.6;;;1.6;;
48679;SDS011;34475;51.658;5.634;2022-07-01T05:16:00;1.6;;;1.6;;
48679;SDS011;34475;51.658;5.634;2022-07-01T05:17:00;1.6;;;1.6;;
48679;SDS011;34475;51.658;5.634;2022-07-01T05:18:10;0.8;;;0.8;;
48679;SDS011;34475;51.658;5.634;2022-07-01T05:19:10;0.8;;;0.8;;
48679;SDS011;34475;51.658;5.634;2022-07-01T05:20:10;0.8;;;0.8;;
48679;SDS011;34475;51.658;5.634;2022-07-01T05:21:10;0.8;;;0.8;;
48679;SDS011;34475;51.658;5.634;2022-07-01T05:22:00;0.8;;;0.8;;
48679;SDS011;34475;51.658;5.634;2022-07-01T05:23:00;0.8;;;0.8;;
48679;SDS011;34475;51.658;5.634;2022-07-01T05:24:00;0.8;;;0.8;;
48679;SDS011;34475;51.658;5.634;2022-07-01T05:25:00;0.8;;;0.8;;
48679;SDS011;34475;51.658;5.634;2022-07-01T05:26:00;0.8;;;0.8;;
48679;SDS011;34475;51.658;5.634;2022-07-01T05:27:01;0.8;;;0.8;;
48679;SDS011;34475;51.658;5.634;2022-07-01T05:28:00;0.8;;;0.8;;
48679;SDS011;34475;51.658;5.634;2022-07-01T05:29:00;0.8;;;0.8;;
48679;SDS011;34475;51.658;5.634;2022-07-01T05:30:00;0.8;;;0.8;;
48679;SDS011;34475;51.658;5.634;2022-07-01T05:31:00;0.8;;;0.8;;
48679;SDS011;34475;51.658;5.634;2022-07-01T05:32:00;0.8;;;0.8;;
48679;SDS011;34475;51.658;5.634;2022-07-01T05:33:00;0.8;;;0.8;;
48679;SDS011;34475;51.658;5.634;2022-07-01T05:34:06;0.8;;;0.8;;
48679;SDS011;34475;51.658;5.634;2022-07-01T05:35:00;0.8;;;0.8;;
48679;SDS011;34475;51.658;5.634;2022-07-01T05:36:01;0.8;;;0.8;;
48679;SDS011;34475;51.658;5.634;2022-07-01T05:37:00;0.8;;;0.8;;
48679;SDS011;34475;51.658;5.634;2022-07-01T05:38:00;1.8;;;1.7;;
48679;SDS011;34475;51.658;5.634;2022-07-01T05:39:01;1.8;;;1.7;;
48679;SDS011;34475;51.658;5.634;2022-07-01T05:40:00;1.8;;;1.7;;
48679;SDS011;34475;51.658;5.634;2022-07-01T05:41:00;1.8;;;1.7;;
48679;SDS011;34475;51.658;5.634;2022-07-01T05:42:00;1.8;;;1.7;;
48679;SDS011;34475;51.658;5.634;2022-07-01T05:43:00;1.8;;;1.7;;
48679;SDS011;34475;51.658;5.634;2022-07-01T05:44:00;1.8;;;1.7;;
48679;SDS011;34475;51.658;5.634;2022-07-01T05:45:00;1.8;;;1.7;;
48679;SDS011;34475;51.658;5.634;2022-07-01T05:46:01;1.8;;;1.7;;
48679;SDS011;34475;51.658;5.634;2022-07-01T05:47:00;1.8;;;1.7;;
48679;SDS011;34475;51.658;5.634;2022-07-01T05:48:00;1.8;;;1.7;;
48679;SDS011;34475;51.658;5.634;2022-07-01T05:49:00;1.8;;;1.7;;
48679;SDS011;34475;51.658;5.634;2022-07-01T05:50:00;1.8;;;1.7;;
48679;SDS011;34475;51.658;5.634;2022-07-01T05:51:00;1.8;;;1.7;;
48679;SDS011;34475;51.658;5.634;2022-07-01T05:52:00;1.8;;;1.7;;
48679;SDS011;34475;51.658;5.634;2022-07-01T05:53:00;1.8;;;1.7;;
48679;SDS011;34475;51.658;5.634;2022-07-01T05:54:00;1.8;;;1.7;;
48679;SDS011;34475;51.658;5.634;2022-07-01T05:55:00;1.8;;;1.7;;
48679;SDS011;34475;51.658;5.634;2022-07-01T05:56:00;1.8;;;1.7;;
48679;SDS011;34475;51.658;5.634;2022-07-01T05:57:00;1.8;;;1.7;;
48679;SDS011;34475;51.658;5.634;2022-07-01T05:58:01;0.9;;;0.9;;
48679;SDS011;34475;51.658;5.634;2022-07-01T05:59:00;0.9;;;0.9;;
48679;SDS011;34475;51.658;5.634;2022-07-01T06:00:00;0.9;;;0.9;;
48679;SDS011;34475;51.658;5.634;2022-07-01T06:01:09;0.9;;;0.9;;
48679;SDS011;34475;51.658;5.634;2022-07-01T06:02:00;0.9;;;0.9;;
48679;SDS011;34475;51.658;5.634;2022-07-01T06:03:02;0.9;;;0.9;;
48679;SDS011;34475;51.658;5.634;2022-07-01T06:04:01;0.9;;;0.9;;
48679;SDS011;34475;51.658;5.634;2022-07-01T06:05:00;0.9;;;0.9;;
48679;SDS011;34475;51.658;5.634;2022-07-01T06:06:00;0.9;;;0.9;;
48679;SDS011;34475;51.658;5.634;2022-07-01T06:07:00;0.9;;;0.9;;
48679;SDS011;34475;51.658;5.634;2022-07-01T06:08:00;0.9;;;0.9;;
48679;SDS011;34475;51.658;5.634;2022-07-01T06:09:00;0.9;;;0.9;;
48679;SDS011;34475;51.658;5.634;2022-07-01T06:10:00;0.9;;;0.9;;
48679;SDS011;34475;51.658;5.634;2022-07-01T06:11:00;0.9;;;0.9;;
48679;SDS011;34475;51.658;5.634;2022-07-01T06:12:00;0.9;;;0.9;;